Pagina principale
METAR-TAF:

METAR-TAF

Aeroporti :

Aeroporto di Lecce-Galatina

Lecce, Italia

latitudine: 40-14N, longitudine: 018-09E, altezza: 48 m

Osservazione

Il bollettino è stato emesso 57 minuti fa, alle 19:55 UTC
Vento 4 kt da sud
Temperature 23°C
Umidità 89%
Pressione 1011 hPa
Visibilità 10 km o più
nessuna nube inferiore a 1500 m e nessun cumulonembo

METAR: LIBN 221955Z 18004KT CAVOK 23/21 Q1011 RMK BKN SCT070 SCT200 VIS MIN 9999 WIND THR14 18004KT WIND THR32 18004KT BLU

Ora: 22:52 (20:52 UTC)

Previsione

Il bollettino è stato emesso 6 ore e 52 minuti fa, alle 14:00 UTC
Previsione valida dal 22 alle 15 UTC al 22 alle 24 UTC
Vento 14 kt da ovest/sud-ovest
Visibilità 10 km o più
Nubi sparse ad un'altezza di 2500 ft

TAF: LIBN 221400Z 2215/2224 24014KT 9999 SCT025

Osservazioni e previsioni meteorologiche di più di 4000 aeroporti (messaggi METAR e TAF).

Le stazioni disponibili sono rappresentate dai dischi gialli e rossi sulla carta.

Puntare il mouse per vedere il nome della stazione.

Clicca sopra per visualizzare le osservazioni e previsioni meteorologiche.

Per cambiare la mappa : fare clic sui pulsanti verdi con una croce nera per ingrandire, il pulsante verde con un trattino per diminuire, o sulla freccia verde per le mappe adiacenti.


METAR-TAF: